sensor_id;sensor_type;location;lat;lon;timestamp;temperature;humidity
674;DHT22;319;48.764;9.174;2022-07-23T00:00:06;26.60;73.50
674;DHT22;319;48.764;9.174;2022-07-23T00:02:33;26.50;74.10
674;DHT22;319;48.764;9.174;2022-07-23T00:05:01;26.50;74.70
674;DHT22;319;48.764;9.174;2022-07-23T00:07:28;26.40;75.30
674;DHT22;319;48.764;9.174;2022-07-23T00:09:55;26.30;75.30
674;DHT22;319;48.764;9.174;2022-07-23T00:12:22;26.20;74.90
674;DHT22;319;48.764;9.174;2022-07-23T00:14:49;26.20;74.90
674;DHT22;319;48.764;9.174;2022-07-23T00:17:16;26.20;74.80
674;DHT22;319;48.764;9.174;2022-07-23T00:19:42;26.20;75.00
674;DHT22;319;48.764;9.174;2022-07-23T00:22:11;26.20;75.40
674;DHT22;319;48.764;9.174;2022-07-23T00:24:37;26.20;75.50
674;DHT22;319;48.764;9.174;2022-07-23T00:27:04;26.20;75.60
674;DHT22;319;48.764;9.174;2022-07-23T00:29:31;26.20;75.50
674;DHT22;319;48.764;9.174;2022-07-23T00:31:58;26.20;75.30
674;DHT22;319;48.764;9.174;2022-07-23T00:34:25;26.10;75.80
674;DHT22;319;48.764;9.174;2022-07-23T00:36:51;26.10;75.70
674;DHT22;319;48.764;9.174;2022-07-23T00:39:20;26.00;75.70
674;DHT22;319;48.764;9.174;2022-07-23T00:41:48;25.90;77.80
674;DHT22;319;48.764;9.174;2022-07-23T00:44:16;25.80;80.60
674;DHT22;319;48.764;9.174;2022-07-23T00:46:47;25.60;82.50
674;DHT22;319;48.764;9.174;2022-07-23T00:49:14;25.30;83.60
674;DHT22;319;48.764;9.174;2022-07-23T00:51:41;25.10;85.50
674;DHT22;319;48.764;9.174;2022-07-23T00:54:09;24.90;86.10
674;DHT22;319;48.764;9.174;2022-07-23T00:56:37;24.90;87.60
674;DHT22;319;48.764;9.174;2022-07-23T00:59:05;24.90;88.10
674;DHT22;319;48.764;9.174;2022-07-23T01:01:32;24.90;87.80
674;DHT22;319;48.764;9.174;2022-07-23T01:03:59;24.90;87.60
674;DHT22;319;48.764;9.174;2022-07-23T01:06:26;24.70;87.50
674;DHT22;319;48.764;9.174;2022-07-23T01:08:53;24.60;88.20
674;DHT22;319;48.764;9.174;2022-07-23T01:11:20;24.50;88.30
674;DHT22;319;48.764;9.174;2022-07-23T01:13:49;24.60;88.60
674;DHT22;319;48.764;9.174;2022-07-23T01:16:16;24.70;88.80
674;DHT22;319;48.764;9.174;2022-07-23T01:18:42;24.70;88.70
674;DHT22;319;48.764;9.174;2022-07-23T01:21:12;24.80;88.20
674;DHT22;319;48.764;9.174;2022-07-23T01:23:40;24.80;87.80
674;DHT22;319;48.764;9.174;2022-07-23T01:26:07;24.70;87.60
674;DHT22;319;48.764;9.174;2022-07-23T01:28:34;24.70;87.50
674;DHT22;319;48.764;9.174;2022-07-23T01:31:01;24.80;87.20
674;DHT22;319;48.764;9.174;2022-07-23T01:33:28;24.70;87.30
674;DHT22;319;48.764;9.174;2022-07-23T01:35:54;24.70;87.10
674;DHT22;319;48.764;9.174;2022-07-23T01:38:21;24.60;87.20
674;DHT22;319;48.764;9.174;2022-07-23T01:40:49;24.50;87.60
674;DHT22;319;48.764;9.174;2022-07-23T01:43:16;24.60;87.80
674;DHT22;319;48.764;9.174;2022-07-23T01:45:43;24.70;87.90
674;DHT22;319;48.764;9.174;2022-07-23T01:48:10;24.70;89.20
674;DHT22;319;48.764;9.174;2022-07-23T01:50:36;24.80;89.60
674;DHT22;319;48.764;9.174;2022-07-23T01:53:03;24.80;90.00
674;DHT22;319;48.764;9.174;2022-07-23T01:55:30;24.80;89.20
674;DHT22;319;48.764;9.174;2022-07-23T01:57:58;24.90;89.10
674;DHT22;319;48.764;9.174;2022-07-23T02:00:25;24.80;89.00
674;DHT22;319;48.764;9.174;2022-07-23T02:02:51;24.70;88.50
674;DHT22;319;48.764;9.174;2022-07-23T02:05:18;24.60;88.20
674;DHT22;319;48.764;9.174;2022-07-23T02:07:45;24.50;88.70
674;DHT22;319;48.764;9.174;2022-07-23T02:10:11;24.40;89.10
674;DHT22;319;48.764;9.174;2022-07-23T02:12:38;24.40;89.20
674;DHT22;319;48.764;9.174;2022-07-23T02:15:08;24.50;89.00
674;DHT22;319;48.764;9.174;2022-07-23T02:17:35;24.50;89.20
674;DHT22;319;48.764;9.174;2022-07-23T02:20:02;24.60;89.60
674;DHT22;319;48.764;9.174;2022-07-23T02:22:29;24.70;89.60
674;DHT22;319;48.764;9.174;2022-07-23T02:24:56;24.70;90.00
674;DHT22;319;48.764;9.174;2022-07-23T02:27:22;24.70;89.90
674;DHT22;319;48.764;9.174;2022-07-23T02:29:49;24.70;89.20
674;DHT22;319;48.764;9.174;2022-07-23T02:32:17;24.60;88.90
674;DHT22;319;48.764;9.174;2022-07-23T02:34:44;24.60;89.30
674;DHT22;319;48.764;9.174;2022-07-23T02:37:11;24.60;89.50
674;DHT22;319;48.764;9.174;2022-07-23T02:39:38;24.50;89.60
674;DHT22;319;48.764;9.174;2022-07-23T02:42:05;24.50;90.10
674;DHT22;319;48.764;9.174;2022-07-23T02:44:31;24.50;90.20
674;DHT22;319;48.764;9.174;2022-07-23T02:46:58;24.50;90.30
674;DHT22;319;48.764;9.174;2022-07-23T02:49:27;24.40;90.50
674;DHT22;319;48.764;9.174;2022-07-23T02:51:53;24.40;90.60
674;DHT22;319;48.764;9.174;2022-07-23T02:54:20;24.40;90.80
674;DHT22;319;48.764;9.174;2022-07-23T02:56:47;24.30;91.00
674;DHT22;319;48.764;9.174;2022-07-23T02:59:16;24.30;91.10
674;DHT22;319;48.764;9.174;2022-07-23T03:01:43;24.20;91.20
674;DHT22;319;48.764;9.174;2022-07-23T03:04:10;24.20;91.40
674;DHT22;319;48.764;9.174;2022-07-23T03:06:38;24.20;91.50
674;DHT22;319;48.764;9.174;2022-07-23T03:09:06;24.20;91.50
674;DHT22;319;48.764;9.174;2022-07-23T03:11:32;24.20;91.50
674;DHT22;319;48.764;9.174;2022-07-23T03:13:59;24.20;91.50
674;DHT22;319;48.764;9.174;2022-07-23T03:16:26;24.20;91.40
674;DHT22;319;48.764;9.174;2022-07-23T03:18:53;24.20;91.40
674;DHT22;319;48.764;9.174;2022-07-23T03:21:19;24.30;91.50
674;DHT22;319;48.764;9.174;2022-07-23T03:23:47;24.40;91.50
674;DHT22;319;48.764;9.174;2022-07-23T03:26:14;24.40;91.20
674;DHT22;319;48.764;9.174;2022-07-23T03:28:41;24.40;91.00
674;DHT22;319;48.764;9.174;2022-07-23T03:31:08;24.50;90.70
674;DHT22;319;48.764;9.174;2022-07-23T03:33:35;24.50;90.90
674;DHT22;319;48.764;9.174;2022-07-23T03:36:01;24.50;90.70
674;DHT22;319;48.764;9.174;2022-07-23T03:38:28;24.60;90.80
674;DHT22;319;48.764;9.174;2022-07-23T03:40:56;24.60;91.10
674;DHT22;319;48.764;9.174;2022-07-23T03:43:23;24.50;91.30
674;DHT22;319;48.764;9.174;2022-07-23T03:45:51;24.60;91.40
674;DHT22;319;48.764;9.174;2022-07-23T03:48:18;24.50;91.50
674;DHT22;319;48.764;9.174;2022-07-23T03:50:45;24.60;91.60
674;DHT22;319;48.764;9.174;2022-07-23T03:53:12;24.50;91.60
674;DHT22;319;48.764;9.174;2022-07-23T03:55:39;24.50;91.70
674;DHT22;319;48.764;9.174;2022-07-23T03:58:07;24.40;91.70
674;DHT22;319;48.764;9.174;2022-07-23T04:00:34;24.40;91.80
674;DHT22;319;48.764;9.174;2022-07-23T04:03:00;24.30;92.00
674;DHT22;319;48.764;9.174;2022-07-23T04:05:27;24.20;92.30
674;DHT22;319;48.764;9.174;2022-07-23T04:07:54;24.20;92.30
674;DHT22;319;48.764;9.174;2022-07-23T04:10:21;24.10;92.00
674;DHT22;319;48.764;9.174;2022-07-23T04:12:47;24.20;92.10
674;DHT22;319;48.764;9.174;2022-07-23T04:15:16;24.20;92.10
674;DHT22;319;48.764;9.174;2022-07-23T04:17:42;24.30;92.20
674;DHT22;319;48.764;9.174;2022-07-23T04:20:11;24.40;92.20
674;DHT22;319;48.764;9.174;2022-07-23T04:22:37;24.40;91.80
674;DHT22;319;48.764;9.174;2022-07-23T04:25:05;24.40;91.70
674;DHT22;319;48.764;9.174;2022-07-23T04:27:32;24.40;91.90
674;DHT22;319;48.764;9.174;2022-07-23T04:29:59;24.30;91.70
674;DHT22;319;48.764;9.174;2022-07-23T04:32:27;24.30;91.80
674;DHT22;319;48.764;9.174;2022-07-23T04:34:54;24.30;91.90
674;DHT22;319;48.764;9.174;2022-07-23T04:37:21;24.30;91.80
674;DHT22;319;48.764;9.174;2022-07-23T04:39:47;24.40;92.10
674;DHT22;319;48.764;9.174;2022-07-23T04:42:14;24.50;91.70
674;DHT22;319;48.764;9.174;2022-07-23T04:44:41;24.50;91.50
674;DHT22;319;48.764;9.174;2022-07-23T04:47:08;24.60;91.40
674;DHT22;319;48.764;9.174;2022-07-23T04:49:37;24.70;91.40
674;DHT22;319;48.764;9.174;2022-07-23T04:52:04;24.70;91.20
674;DHT22;319;48.764;9.174;2022-07-23T04:54:31;24.80;91.30
674;DHT22;319;48.764;9.174;2022-07-23T04:56:57;24.80;91.30
674;DHT22;319;48.764;9.174;2022-07-23T04:59:24;24.80;91.30
674;DHT22;319;48.764;9.174;2022-07-23T05:01:51;24.80;90.80
674;DHT22;319;48.764;9.174;2022-07-23T05:04:17;24.70;90.90
674;DHT22;319;48.764;9.174;2022-07-23T05:06:46;24.70;91.20
674;DHT22;319;48.764;9.174;2022-07-23T05:09:12;24.80;91.40
674;DHT22;319;48.764;9.174;2022-07-23T05:11:39;24.90;90.80
674;DHT22;319;48.764;9.174;2022-07-23T05:14:06;25.10;91.00
674;DHT22;319;48.764;9.174;2022-07-23T05:16:33;25.20;90.70
674;DHT22;319;48.764;9.174;2022-07-23T05:18:59;25.20;90.50
674;DHT22;319;48.764;9.174;2022-07-23T05:21:26;25.30;90.20
674;DHT22;319;48.764;9.174;2022-07-23T05:23:54;25.20;90.40
674;DHT22;319;48.764;9.174;2022-07-23T05:26:21;25.00;90.70
674;DHT22;319;48.764;9.174;2022-07-23T05:28:48;24.90;91.20
674;DHT22;319;48.764;9.174;2022-07-23T05:31:15;24.90;91.00
674;DHT22;319;48.764;9.174;2022-07-23T05:33:41;24.90;90.90
674;DHT22;319;48.764;9.174;2022-07-23T05:36:09;24.90;90.90
674;DHT22;319;48.764;9.174;2022-07-23T05:38:36;25.10;90.60
674;DHT22;319;48.764;9.174;2022-07-23T05:41:04;25.10;90.50
674;DHT22;319;48.764;9.174;2022-07-23T05:43:31;25.20;90.50
674;DHT22;319;48.764;9.174;2022-07-23T05:45:58;25.30;90.50
674;DHT22;319;48.764;9.174;2022-07-23T05:48:24;25.30;90.40
674;DHT22;319;48.764;9.174;2022-07-23T05:50:51;25.30;90.40
674;DHT22;319;48.764;9.174;2022-07-23T05:53:18;25.10;90.60
674;DHT22;319;48.764;9.174;2022-07-23T05:55:45;25.10;90.90
674;DHT22;319;48.764;9.174;2022-07-23T05:58:13;25.10;90.40
674;DHT22;319;48.764;9.174;2022-07-23T06:00:39;25.20;90.30
674;DHT22;319;48.764;9.174;2022-07-23T06:03:06;25.30;90.60
674;DHT22;319;48.764;9.174;2022-07-23T06:05:33;25.40;90.50
674;DHT22;319;48.764;9.174;2022-07-23T06:08:00;25.50;90.50
674;DHT22;319;48.764;9.174;2022-07-23T06:10:27;25.40;90.30
674;DHT22;319;48.764;9.174;2022-07-23T06:12:54;25.50;90.20
674;DHT22;319;48.764;9.174;2022-07-23T06:15:23;25.40;90.20
674;DHT22;319;48.764;9.174;2022-07-23T06:17:50;25.50;90.30
674;DHT22;319;48.764;9.174;2022-07-23T06:20:16;25.60;90.20
674;DHT22;319;48.764;9.174;2022-07-23T06:22:44;25.70;89.80
674;DHT22;319;48.764;9.174;2022-07-23T06:25:10;26.00;88.70
674;DHT22;319;48.764;9.174;2022-07-23T06:27:37;26.10;87.50
674;DHT22;319;48.764;9.174;2022-07-23T06:30:05;26.30;86.50
674;DHT22;319;48.764;9.174;2022-07-23T06:32:35;26.40;85.80
674;DHT22;319;48.764;9.174;2022-07-23T06:35:02;26.70;86.00
674;DHT22;319;48.764;9.174;2022-07-23T06:37:29;26.90;84.20
674;DHT22;319;48.764;9.174;2022-07-23T06:39:56;27.20;83.20
674;DHT22;319;48.764;9.174;2022-07-23T06:42:23;27.30;82.40
674;DHT22;319;48.764;9.174;2022-07-23T06:44:49;27.30;82.90
674;DHT22;319;48.764;9.174;2022-07-23T06:47:16;27.30;81.40
674;DHT22;319;48.764;9.174;2022-07-23T06:49:45;27.40;81.30
674;DHT22;319;48.764;9.174;2022-07-23T06:52:11;27.70;80.50
674;DHT22;319;48.764;9.174;2022-07-23T06:54:38;27.70;80.20
674;DHT22;319;48.764;9.174;2022-07-23T06:57:05;27.70;79.80
674;DHT22;319;48.764;9.174;2022-07-23T06:59:33;27.70;79.90
674;DHT22;319;48.764;9.174;2022-07-23T07:02:02;27.50;80.50
674;DHT22;319;48.764;9.174;2022-07-23T07:04:28;27.30;80.60
674;DHT22;319;48.764;9.174;2022-07-23T07:06:56;27.10;81.20
674;DHT22;319;48.764;9.174;2022-07-23T07:09:23;27.10;81.50
674;DHT22;319;48.764;9.174;2022-07-23T07:11:50;27.00;81.40
674;DHT22;319;48.764;9.174;2022-07-23T07:14:17;26.90;81.30
674;DHT22;319;48.764;9.174;2022-07-23T07:16:44;26.70;82.00
674;DHT22;319;48.764;9.174;2022-07-23T07:19:10;26.60;82.30
674;DHT22;319;48.764;9.174;2022-07-23T07:21:37;26.60;82.70
674;DHT22;319;48.764;9.174;2022-07-23T07:24:06;26.70;82.10
674;DHT22;319;48.764;9.174;2022-07-23T07:26:34;26.70;81.90
674;DHT22;319;48.764;9.174;2022-07-23T07:29:01;26.50;81.60
674;DHT22;319;48.764;9.174;2022-07-23T07:31:27;26.30;82.70
674;DHT22;319;48.764;9.174;2022-07-23T07:33:54;26.20;83.60
674;DHT22;319;48.764;9.174;2022-07-23T07:36:22;26.00;85.00
674;DHT22;319;48.764;9.174;2022-07-23T07:38:49;25.90;86.90
674;DHT22;319;48.764;9.174;2022-07-23T07:41:17;25.60;89.10
674;DHT22;319;48.764;9.174;2022-07-23T07:43:48;25.40;90.60
674;DHT22;319;48.764;9.174;2022-07-23T07:46:15;25.60;90.90
674;DHT22;319;48.764;9.174;2022-07-23T07:48:42;26.20;90.40
674;DHT22;319;48.764;9.174;2022-07-23T07:51:08;26.50;89.60
674;DHT22;319;48.764;9.174;2022-07-23T07:53:35;26.80;88.70
674;DHT22;319;48.764;9.174;2022-07-23T07:56:02;27.30;87.90
674;DHT22;319;48.764;9.174;2022-07-23T07:58:30;28.00;84.10
674;DHT22;319;48.764;9.174;2022-07-23T08:00:57;28.20;82.90
674;DHT22;319;48.764;9.174;2022-07-23T08:03:23;28.20;81.00
674;DHT22;319;48.764;9.174;2022-07-23T08:05:50;28.60;79.60
674;DHT22;319;48.764;9.174;2022-07-23T08:08:17;29.20;77.40
674;DHT22;319;48.764;9.174;2022-07-23T08:10:44;29.60;75.80
674;DHT22;319;48.764;9.174;2022-07-23T08:13:13;30.20;73.70
674;DHT22;319;48.764;9.174;2022-07-23T08:15:42;30.70;71.50
674;DHT22;319;48.764;9.174;2022-07-23T08:18:09;30.30;70.60
674;DHT22;319;48.764;9.174;2022-07-23T08:20:36;30.50;70.10
674;DHT22;319;48.764;9.174;2022-07-23T08:23:04;30.50;69.60
674;DHT22;319;48.764;9.174;2022-07-23T08:25:33;30.20;69.80
674;DHT22;319;48.764;9.174;2022-07-23T08:28:02;29.60;70.70
674;DHT22;319;48.764;9.174;2022-07-23T08:30:29;29.30;71.90
674;DHT22;319;48.764;9.174;2022-07-23T08:33:01;28.70;73.30
674;DHT22;319;48.764;9.174;2022-07-23T08:35:30;28.10;75.10
674;DHT22;319;48.764;9.174;2022-07-23T08:37:58;27.80;76.90
674;DHT22;319;48.764;9.174;2022-07-23T08:40:27;27.20;78.80
674;DHT22;319;48.764;9.174;2022-07-23T08:42:54;27.10;79.80
674;DHT22;319;48.764;9.174;2022-07-23T08:45:24;27.20;79.50
674;DHT22;319;48.764;9.174;2022-07-23T08:47:52;27.20;79.90
674;DHT22;319;48.764;9.174;2022-07-23T08:50:22;27.40;79.90
674;DHT22;319;48.764;9.174;2022-07-23T08:52:50;27.90;78.60
674;DHT22;319;48.764;9.174;2022-07-23T08:55:18;28.60;76.60
674;DHT22;319;48.764;9.174;2022-07-23T08:57:48;29.50;73.30
674;DHT22;319;48.764;9.174;2022-07-23T09:00:15;30.20;70.60
674;DHT22;319;48.764;9.174;2022-07-23T09:02:43;31.10;67.50
674;DHT22;319;48.764;9.174;2022-07-23T09:05:12;31.70;64.00
674;DHT22;319;48.764;9.174;2022-07-23T09:08:04;32.50;61.50
674;DHT22;319;48.764;9.174;2022-07-23T09:10:43;32.30;60.20
674;DHT22;319;48.764;9.174;2022-07-23T09:13:33;32.20;59.20
674;DHT22;319;48.764;9.174;2022-07-23T09:16:02;32.90;58.90
674;DHT22;319;48.764;9.174;2022-07-23T09:18:31;33.50;56.90
674;DHT22;319;48.764;9.174;2022-07-23T09:21:19;33.20;56.20
674;DHT22;319;48.764;9.174;2022-07-23T09:23:49;32.40;54.60
674;DHT22;319;48.764;9.174;2022-07-23T09:26:26;32.20;55.30
674;DHT22;319;48.764;9.174;2022-07-23T09:28:59;32.20;56.30
674;DHT22;319;48.764;9.174;2022-07-23T09:31:31;32.70;55.30
674;DHT22;319;48.764;9.174;2022-07-23T09:34:11;32.90;54.40
674;DHT22;319;48.764;9.174;2022-07-23T09:36:39;32.70;54.60
674;DHT22;319;48.764;9.174;2022-07-23T09:39:08;32.30;54.80
674;DHT22;319;48.764;9.174;2022-07-23T09:41:40;32.20;55.20
674;DHT22;319;48.764;9.174;2022-07-23T09:44:12;32.00;55.90
674;DHT22;319;48.764;9.174;2022-07-23T09:46:39;31.90;56.20
674;DHT22;319;48.764;9.174;2022-07-23T09:49:12;31.50;56.40
674;DHT22;319;48.764;9.174;2022-07-23T09:51:47;31.20;57.00
674;DHT22;319;48.764;9.174;2022-07-23T09:54:27;31.00;57.60
674;DHT22;319;48.764;9.174;2022-07-23T09:56:56;31.00;57.50
674;DHT22;319;48.764;9.174;2022-07-23T09:59:25;30.90;58.20
674;DHT22;319;48.764;9.174;2022-07-23T10:01:54;31.00;58.40
674;DHT22;319;48.764;9.174;2022-07-23T10:04:22;31.00;58.00
674;DHT22;319;48.764;9.174;2022-07-23T10:06:51;31.00;58.40
674;DHT22;319;48.764;9.174;2022-07-23T10:09:24;30.90;58.80
674;DHT22;319;48.764;9.174;2022-07-23T10:11:55;30.90;59.10
674;DHT22;319;48.764;9.174;2022-07-23T10:14:27;31.00;58.70
674;DHT22;319;48.764;9.174;2022-07-23T10:16:57;30.80;59.10
674;DHT22;319;48.764;9.174;2022-07-23T10:19:23;30.40;60.00
674;DHT22;319;48.764;9.174;2022-07-23T10:21:53;30.20;61.00
674;DHT22;319;48.764;9.174;2022-07-23T10:24:38;30.30;62.70
674;DHT22;319;48.764;9.174;2022-07-23T10:30:03;30.20;62.10
674;DHT22;319;48.764;9.174;2022-07-23T10:32:37;30.40;60.50
674;DHT22;319;48.764;9.174;2022-07-23T10:35:11;30.40;60.50
674;DHT22;319;48.764;9.174;2022-07-23T10:37:41;30.30;59.40
674;DHT22;319;48.764;9.174;2022-07-23T10:40:10;30.20;60.20
674;DHT22;319;48.764;9.174;2022-07-23T10:42:39;30.20;59.90
674;DHT22;319;48.764;9.174;2022-07-23T10:45:23;30.30;59.60
674;DHT22;319;48.764;9.174;2022-07-23T10:47:50;30.30;59.30
674;DHT22;319;48.764;9.174;2022-07-23T10:50:23;30.60;58.40
674;DHT22;319;48.764;9.174;2022-07-23T10:53:13;30.70;57.20
674;DHT22;319;48.764;9.174;2022-07-23T10:55:52;30.60;57.10
674;DHT22;319;48.764;9.174;2022-07-23T10:58:23;30.50;57.40
674;DHT22;319;48.764;9.174;2022-07-23T11:00:50;30.70;57.30
674;DHT22;319;48.764;9.174;2022-07-23T11:03:32;30.70;56.90
674;DHT22;319;48.764;9.174;2022-07-23T11:06:02;30.70;57.20
674;DHT22;319;48.764;9.174;2022-07-23T11:08:29;30.60;57.20
674;DHT22;319;48.764;9.174;2022-07-23T11:11:09;30.70;57.60
674;DHT22;319;48.764;9.174;2022-07-23T11:13:46;30.80;57.70
674;DHT22;319;48.764;9.174;2022-07-23T11:16:19;30.80;58.00
674;DHT22;319;48.764;9.174;2022-07-23T11:19:07;30.90;57.70
674;DHT22;319;48.764;9.174;2022-07-23T11:21:44;31.00;57.40
674;DHT22;319;48.764;9.174;2022-07-23T11:24:13;31.20;57.00
674;DHT22;319;48.764;9.174;2022-07-23T11:26:45;31.20;57.30
674;DHT22;319;48.764;9.174;2022-07-23T11:29:50;31.50;57.40
674;DHT22;319;48.764;9.174;2022-07-23T11:32:33;31.60;57.30
674;DHT22;319;48.764;9.174;2022-07-23T11:35:01;31.70;56.70
674;DHT22;319;48.764;9.174;2022-07-23T11:37:33;31.50;57.30
674;DHT22;319;48.764;9.174;2022-07-23T11:40:03;31.50;57.10
674;DHT22;319;48.764;9.174;2022-07-23T11:42:30;31.60;57.50
674;DHT22;319;48.764;9.174;2022-07-23T11:44:58;31.60;57.30
674;DHT22;319;48.764;9.174;2022-07-23T11:47:26;31.90;57.20
674;DHT22;319;48.764;9.174;2022-07-23T11:49:55;32.10;56.90
674;DHT22;319;48.764;9.174;2022-07-23T11:52:23;32.00;56.70
674;DHT22;319;48.764;9.174;2022-07-23T11:54:51;31.40;57.60
674;DHT22;319;48.764;9.174;2022-07-23T11:57:19;31.20;58.40
674;DHT22;319;48.764;9.174;2022-07-23T11:59:50;31.00;59.10
674;DHT22;319;48.764;9.174;2022-07-23T12:02:20;31.10;59.30
674;DHT22;319;48.764;9.174;2022-07-23T12:04:49;31.10;59.00
674;DHT22;319;48.764;9.174;2022-07-23T12:07:28;31.20;58.80
674;DHT22;319;48.764;9.174;2022-07-23T12:09:56;31.20;58.80
674;DHT22;319;48.764;9.174;2022-07-23T12:12:23;31.40;58.70
674;DHT22;319;48.764;9.174;2022-07-23T12:14:52;31.50;58.50
674;DHT22;319;48.764;9.174;2022-07-23T12:17:26;31.50;57.30
674;DHT22;319;48.764;9.174;2022-07-23T12:19:54;31.40;57.80
674;DHT22;319;48.764;9.174;2022-07-23T12:22:21;31.50;58.00
674;DHT22;319;48.764;9.174;2022-07-23T12:24:53;31.50;57.70
674;DHT22;319;48.764;9.174;2022-07-23T12:27:21;31.50;57.90
674;DHT22;319;48.764;9.174;2022-07-23T12:29:48;31.50;57.90
674;DHT22;319;48.764;9.174;2022-07-23T12:32:24;31.30;57.80
674;DHT22;319;48.764;9.174;2022-07-23T12:35:03;31.20;57.90
674;DHT22;319;48.764;9.174;2022-07-23T12:37:31;31.10;57.70
674;DHT22;319;48.764;9.174;2022-07-23T12:39:58;31.00;57.80
674;DHT22;319;48.764;9.174;2022-07-23T12:42:45;31.10;58.00
674;DHT22;319;48.764;9.174;2022-07-23T12:45:12;31.10;57.80
674;DHT22;319;48.764;9.174;2022-07-23T12:47:58;31.00;58.10
674;DHT22;319;48.764;9.174;2022-07-23T12:50:33;30.90;58.60
674;DHT22;319;48.764;9.174;2022-07-23T12:53:09;31.00;58.90
674;DHT22;319;48.764;9.174;2022-07-23T12:55:36;31.10;58.90
674;DHT22;319;48.764;9.174;2022-07-23T12:58:09;30.80;58.40
674;DHT22;319;48.764;9.174;2022-07-23T13:01:04;30.70;58.90
674;DHT22;319;48.764;9.174;2022-07-23T13:03:39;30.60;59.60
674;DHT22;319;48.764;9.174;2022-07-23T13:06:08;30.70;59.90
674;DHT22;319;48.764;9.174;2022-07-23T13:08:37;30.80;59.70
674;DHT22;319;48.764;9.174;2022-07-23T13:11:05;30.90;59.40
674;DHT22;319;48.764;9.174;2022-07-23T13:13:34;31.10;59.10
674;DHT22;319;48.764;9.174;2022-07-23T13:16:02;31.00;58.40
674;DHT22;319;48.764;9.174;2022-07-23T13:18:32;31.10;59.00
674;DHT22;319;48.764;9.174;2022-07-23T13:21:00;31.30;58.70
674;DHT22;319;48.764;9.174;2022-07-23T13:23:27;31.50;57.90
674;DHT22;319;48.764;9.174;2022-07-23T13:25:54;31.40;56.20
674;DHT22;319;48.764;9.174;2022-07-23T13:28:21;31.30;57.00
674;DHT22;319;48.764;9.174;2022-07-23T13:30:50;31.40;56.80
674;DHT22;319;48.764;9.174;2022-07-23T13:33:18;31.50;56.60
674;DHT22;319;48.764;9.174;2022-07-23T13:35:44;31.50;56.10
674;DHT22;319;48.764;9.174;2022-07-23T13:38:13;31.50;55.80
674;DHT22;319;48.764;9.174;2022-07-23T13:40:42;31.50;56.30
674;DHT22;319;48.764;9.174;2022-07-23T13:43:10;31.60;55.60
674;DHT22;319;48.764;9.174;2022-07-23T13:45:37;31.50;55.90
674;DHT22;319;48.764;9.174;2022-07-23T13:48:05;31.30;56.10
674;DHT22;319;48.764;9.174;2022-07-23T13:50:32;31.30;55.60
674;DHT22;319;48.764;9.174;2022-07-23T13:53:01;31.40;55.10
674;DHT22;319;48.764;9.174;2022-07-23T13:55:29;31.30;55.10
674;DHT22;319;48.764;9.174;2022-07-23T13:57:56;31.10;55.30
674;DHT22;319;48.764;9.174;2022-07-23T14:00:23;31.20;55.50
674;DHT22;319;48.764;9.174;2022-07-23T14:02:50;31.40;54.90
674;DHT22;319;48.764;9.174;2022-07-23T14:05:17;31.40;55.60
674;DHT22;319;48.764;9.174;2022-07-23T14:07:43;31.20;55.90
674;DHT22;319;48.764;9.174;2022-07-23T14:10:12;31.10;56.20
674;DHT22;319;48.764;9.174;2022-07-23T14:12:40;31.20;55.90
674;DHT22;319;48.764;9.174;2022-07-23T14:15:07;31.30;55.50
674;DHT22;319;48.764;9.174;2022-07-23T14:17:35;31.50;55.30
674;DHT22;319;48.764;9.174;2022-07-23T14:20:03;31.70;54.60
674;DHT22;319;48.764;9.174;2022-07-23T14:22:30;31.90;54.70
674;DHT22;319;48.764;9.174;2022-07-23T14:24:57;32.00;54.90
674;DHT22;319;48.764;9.174;2022-07-23T14:27:24;32.10;54.40
674;DHT22;319;48.764;9.174;2022-07-23T14:29:53;32.10;53.90
674;DHT22;319;48.764;9.174;2022-07-23T14:32:20;32.30;53.20
674;DHT22;319;48.764;9.174;2022-07-23T14:34:48;32.00;51.30
674;DHT22;319;48.764;9.174;2022-07-23T14:37:14;31.60;52.00
674;DHT22;319;48.764;9.174;2022-07-23T14:39:42;31.60;52.50
674;DHT22;319;48.764;9.174;2022-07-23T14:42:10;31.70;52.60
674;DHT22;319;48.764;9.174;2022-07-23T14:44:37;31.80;52.70
674;DHT22;319;48.764;9.174;2022-07-23T14:47:05;31.90;52.90
674;DHT22;319;48.764;9.174;2022-07-23T14:49:32;31.80;53.00
674;DHT22;319;48.764;9.174;2022-07-23T14:52:00;31.90;53.10
674;DHT22;319;48.764;9.174;2022-07-23T14:54:27;32.00;53.30
674;DHT22;319;48.764;9.174;2022-07-23T14:56:55;31.80;52.30
674;DHT22;319;48.764;9.174;2022-07-23T14:59:22;31.90;51.90
674;DHT22;319;48.764;9.174;2022-07-23T15:01:49;31.70;51.60
674;DHT22;319;48.764;9.174;2022-07-23T15:04:17;31.60;52.10
674;DHT22;319;48.764;9.174;2022-07-23T15:06:44;31.40;52.50
674;DHT22;319;48.764;9.174;2022-07-23T15:09:11;31.40;52.50
674;DHT22;319;48.764;9.174;2022-07-23T15:11:39;31.40;52.90
674;DHT22;319;48.764;9.174;2022-07-23T15:14:06;31.30;52.60
674;DHT22;319;48.764;9.174;2022-07-23T15:16:34;31.30;52.50
674;DHT22;319;48.764;9.174;2022-07-23T15:19:02;31.20;53.00
674;DHT22;319;48.764;9.174;2022-07-23T15:21:31;31.10;53.30
674;DHT22;319;48.764;9.174;2022-07-23T15:23:58;31.10;53.30
674;DHT22;319;48.764;9.174;2022-07-23T15:26:25;31.00;53.90
674;DHT22;319;48.764;9.174;2022-07-23T15:28:52;30.70;54.80
674;DHT22;319;48.764;9.174;2022-07-23T15:31:19;30.70;55.10
674;DHT22;319;48.764;9.174;2022-07-23T15:33:46;30.70;55.10
674;DHT22;319;48.764;9.174;2022-07-23T15:36:12;30.60;55.30
674;DHT22;319;48.764;9.174;2022-07-23T15:38:41;30.60;55.80
674;DHT22;319;48.764;9.174;2022-07-23T15:41:07;30.60;56.20
674;DHT22;319;48.764;9.174;2022-07-23T15:43:34;30.60;56.10
674;DHT22;319;48.764;9.174;2022-07-23T15:46:01;30.60;56.10
674;DHT22;319;48.764;9.174;2022-07-23T15:48:28;30.70;55.90
674;DHT22;319;48.764;9.174;2022-07-23T15:50:54;30.60;55.70
674;DHT22;319;48.764;9.174;2022-07-23T15:53:21;30.60;55.30
674;DHT22;319;48.764;9.174;2022-07-23T15:55:49;30.70;55.20
674;DHT22;319;48.764;9.174;2022-07-23T15:58:16;30.60;54.80
674;DHT22;319;48.764;9.174;2022-07-23T16:00:43;30.50;54.70
674;DHT22;319;48.764;9.174;2022-07-23T16:03:10;30.50;55.00
674;DHT22;319;48.764;9.174;2022-07-23T16:05:36;30.50;55.50
674;DHT22;319;48.764;9.174;2022-07-23T16:08:04;30.50;55.90
674;DHT22;319;48.764;9.174;2022-07-23T16:10:31;30.50;55.90
674;DHT22;319;48.764;9.174;2022-07-23T16:13:00;30.40;56.00
674;DHT22;319;48.764;9.174;2022-07-23T16:15:26;30.40;56.50
674;DHT22;319;48.764;9.174;2022-07-23T16:17:54;30.30;56.80
674;DHT22;319;48.764;9.174;2022-07-23T16:20:21;30.10;56.40
674;DHT22;319;48.764;9.174;2022-07-23T16:22:48;30.10;56.50
674;DHT22;319;48.764;9.174;2022-07-23T16:25:14;30.10;56.60
674;DHT22;319;48.764;9.174;2022-07-23T16:27:41;30.10;56.40
674;DHT22;319;48.764;9.174;2022-07-23T16:30:12;30.10;56.40
674;DHT22;319;48.764;9.174;2022-07-23T16:32:39;30.00;56.40
674;DHT22;319;48.764;9.174;2022-07-23T16:35:07;29.90;56.50
674;DHT22;319;48.764;9.174;2022-07-23T16:37:34;29.90;56.50
674;DHT22;319;48.764;9.174;2022-07-23T16:40:02;29.90;56.90
674;DHT22;319;48.764;9.174;2022-07-23T16:42:29;29.80;57.60
674;DHT22;319;48.764;9.174;2022-07-23T16:44:56;29.80;58.20